Latest Coastal Weather Observations for Wynyard

IDV60701

Issued at 9:41 am EST Wednesday 15 July 2020 (issued every 10 minutes, with the page automatically refreshed every 10 minutes)

About coastal observations | Map of coastal stations | Coastal observations for VIC | Marine services | Other Formats
Station Details ID: 091107 Name: WYNYARD AIRPORT Lat: -41.00 Lon: 145.73 Height: 12.0 m
Data from the previous 72 hours. | See also: Recent months at Wynyard
Date/Time
EST
Wind Sea
Height
m
Swell Vis
km
Cloud Weather Temp
°C
Press
hPa
Rain since
9am
mm
Dir  Spd
kts
Gust
kts
Height
m
Period
s
Dir
15/09:30am WNW 4 5 - - - - 10 Clear - 3.4 1028.3 0.0
15/09:00am WNW 6 7 - - - - 10 - Rain 1.7 1028.3 0.2
15/08:30am WNW 6 7 - - - - 10 - - 0.6 1028.3 0.0
15/08:00am WNW 7 7 - - - - 10 - - -0.3 1028.3 0.0
15/07:30am WNW 7 7 - - - - 10 - - -0.5 1028.5 0.0
15/07:00am W 6 7 - - - - 10 - - -0.7 1028.6 0.0
15/06:30am WNW 5 6 - - - - 10 - - -0.9 1028.5 0.0
15/06:00am WNW 7 7 - - - - 10 - - -0.3 1028.5 0.0
15/05:30am WNW 5 6 - - - - 10 - - -0.1 1028.4 0.0
15/05:00am WNW 6 7 - - - - 10 - - -0.9 1028.6 0.0
15/04:30am WNW 6 7 - - - - 10 - - -0.7 1028.7 0.0
15/04:00am WNW 6 7 - - - - 10 - - -0.4 1028.9 0.0
15/03:30am W 6 7 - - - - 10 - - -0.8 1029.1 0.0
15/03:00am WNW 7 8 - - - - 10 - - 0.3 1029.3 0.0
15/02:30am WNW 4 6 - - - - 10 - - -0.1 1029.4 0.0
15/02:00am WNW 6 7 - - - - 10 - - 0.4 1029.6 0.0
15/01:30am W 6 7 - - - - 10 - - 0.2 1029.7 0.0
15/01:00am WNW 5 6 - - - - 10 - - -0.2 1029.9 0.0
15/12:30am WNW 6 7 - - - - 10 - - 1.0 1030.1 0.0
15/12:00am WNW 6 7 - - - - 10 - - 0.3 1030.3 0.0
 
Date/Time
EST
Wind Sea
Height
m
Swell Vis
km
Cloud Weather Temp
°C
Press
hPa
Rain since
9am
mm
Dir  Spd
kts
Gust
kts
Height
m
Period
s
Dir
14/11:30pm W 5 6 - - - - 10 - - 0.4 1030.6 0.0
14/11:00pm W 5 6 - - - - 8 - - 0.8 1030.8 0.0
14/10:30pm WNW 6 7 - - - - 9 - - 1.3 1030.9 0.0
14/10:00pm WNW 6 7 - - - - 10 - - 2.0 1031.0 0.0
14/09:30pm WNW 6 7 - - - - 10 - - 2.0 1031.0 0.0
14/09:00pm W 6 6 - - - - 10 - - 1.9 1030.9 0.0
14/08:30pm WNW 5 6 - - - - 10 - - 2.8 1031.0 0.0
14/08:00pm W 6 6 - - - - 8 - - 3.7 1031.0 0.0
14/07:30pm W 4 5 - - - - 10 - - 4.5 1030.9 0.0
14/07:00pm W 5 6 - - - - 10 - - 5.0 1030.9 0.0
14/06:30pm W 4 5 - - - - 10 - - 4.2 1030.6 0.0
14/06:00pm S 4 6 - - - - 10 - - 4.8 1030.4 0.0
14/05:30pm SSW 3 5 - - - - 10 - - 5.9 1030.2 0.0
14/05:00pm CALM 0 3 - - - - 10 - - 9.2 1030.0 0.0
14/04:30pm E 4 5 - - - - 10 - - 10.5 1030.0 0.0
14/04:00pm E 5 7 - - - - 10 - - 11.2 1030.0 0.0
14/03:30pm ENE 6 9 - - - - 10 - - 11.5 1030.0 0.0
14/03:00pm ENE 6 8 - - - - 10 - - 11.5 1029.8 0.0
14/02:30pm E 6 9 - - - - 10 - - 11.6 1029.8 0.0
14/02:00pm E 8 10 - - - - 10 - - 11.4 1029.9 0.0
14/01:30pm E 7 10 - - - - 10 - - 11.4 1029.9 0.0
14/01:00pm E 8 11 - - - - 10 - - 11.0 1030.2 0.0
14/12:30pm E 7 10 - - - - 10 - - 10.8 1030.7 0.0
14/12:00pm E 7 9 - - - - 10 - - 10.9 1031.0 0.0
14/11:30am SE 7 9 - - - - 10 - - 10.3 1031.5 0.0
14/11:00am ESE 5 6 - - - - 10 - - 9.9 1031.8 0.0
14/10:30am SSE 3 8 - - - - 10 - - 8.9 1032.2 0.0
14/10:00am CALM 0 0 - - - - 10 - - 7.1 1032.2 0.0
14/09:30am W 3 5 - - - - 10 - - 5.7 1032.2 0.0
14/09:00am WNW 4 5 - - - - 10 - - 4.5 1032.2 0.0
14/08:30am WNW 5 5 - - - - 10 - - 3.4 1032.3 0.0
14/08:00am W 5 6 - - - - 9 - - 2.1 1032.1 0.0
14/07:30am WNW 6 7 - - - - 10 Partly cloudy - 2.0 1032.1 0.0
14/07:00am WNW 6 7 - - - - 10 Partly cloudy - 3.2 1032.1 0.0
14/06:30am WNW 5 7 - - - - 10 Cloudy - 3.5 1032.0 0.0
14/06:00am WNW 5 6 - - - - 10 Cloudy - 3.8 1032.0 0.0
14/05:30am WNW 6 7 - - - - 10 Cloudy - 3.5 1031.8 0.0
14/05:00am WNW 5 6 - - - - 10 Cloudy - 3.1 1031.4 0.0
14/04:30am W 5 6 - - - - 10 Cloudy - 2.6 1031.1 0.0
14/04:00am W 4 5 - - - - 10 Partly cloudy - 2.0 1031.0 0.0
14/03:30am W 5 5 - - - - 10 - - 2.0 1031.1 0.0
14/03:00am WNW 5 6 - - - - 10 Partly cloudy - 1.7 1031.0 0.0
14/02:30am WNW 6 7 - - - - 10 Partly cloudy - 2.4 1031.1 0.0
14/02:00am W 7 8 - - - - 10 - - 2.7 1030.9 0.0
14/01:32am W 6 7 - - - - 10 - - 2.9 1030.8 0.0
14/01:30am W 6 6 - - - - 10 - - 2.7 1030.8 0.0
14/01:15am W 5 6 - - - - 5 Partly cloudy - 3.7 1030.8 0.0
14/01:00am W 4 5 - - - - 10 Partly cloudy - 4.8 1030.7 0.0
14/12:30am WSW 4 5 - - - - 10 Cloudy - 5.8 1030.7 0.0
14/12:00am SSW 5 6 - - - - 10 Cloudy - 5.3 1030.9 0.0
 
Date/Time
EST
Wind Sea
Height
m
Swell Vis
km
Cloud Weather Temp
°C
Press
hPa
Rain since
9am
mm
Dir  Spd
kts
Gust
kts
Height
m
Period
s
Dir
13/11:30pm SSW 1 3 - - - - 9 Cloudy - 5.5 1030.9 0.0
13/11:00pm W 3 4 - - - - 10 Cloudy - 5.6 1030.8 0.0
13/10:30pm WSW 4 5 - - - - 10 Cloudy - 4.8 1030.9 0.0
13/10:00pm W 5 5 - - - - 7 Cloudy - 3.8 1030.9 0.0
13/09:30pm WNW 4 5 - - - - 6 - - 3.7 1030.8 0.0
13/09:02pm WNW 5 5 - - - - 8 Partly cloudy - 4.7 1030.8 0.0
13/09:00pm WNW 5 5 - - - - 7 Partly cloudy - 4.5 1030.7 0.0
13/08:47pm WNW 4 5 - - - - 5 Partly cloudy - 5.1 1030.8 0.0
13/08:30pm WNW 4 4 - - - - 10 Cloudy - 5.3 1030.7 0.0
13/08:00pm W 4 5 - - - - 10 Cloudy - 6.5 1030.7 0.0
13/07:30pm WNW 5 6 - - - - 10 Cloudy - 6.5 1030.7 0.0
13/07:00pm W 4 4 - - - - 10 Partly cloudy - 6.6 1030.2 0.0
13/06:30pm W 3 4 - - - - 10 Partly cloudy - 6.1 1030.0 0.0
13/06:00pm SSW 1 4 - - - - 10 Partly cloudy - 5.7 1029.7 0.0
13/05:30pm SSW 2 4 - - - - 10 Partly cloudy - 6.3 1029.5 0.0
13/05:00pm SSW 3 4 - - - - 10 Partly cloudy - 7.8 1029.1 0.0
13/04:30pm E 2 4 - - - - 10 Partly cloudy - 11.1 1028.9 0.0
13/04:00pm E 4 5 - - - - 10 Partly cloudy - 11.0 1028.8 0.0
13/03:30pm E 5 6 - - - - 10 Partly cloudy - 11.4 1028.6 0.0
13/03:00pm E 5 8 - - - - 10 Cloudy - 11.6 1028.4 0.0
13/02:30pm ENE 6 8 - - - - 10 Partly cloudy - 12.2 1028.2 0.0
13/02:00pm E 7 8 - - - - 10 Cloudy - 12.1 1028.2 0.0
13/01:30pm ENE 7 10 - - - - 10 Cloudy - 11.8 1028.3 0.0
13/01:00pm ENE 8 11 - - - - 10 Partly cloudy - 11.7 1028.6 0.0
13/12:30pm E 8 10 - - - - 10 Partly cloudy - 12.5 1028.8 0.0
13/12:00pm E 6 8 - - - - 10 - - 12.1 1029.0 0.0
13/11:30am E 9 12 - - - - 10 - - 12.0 1029.3 0.0
13/11:00am E 9 12 - - - - 10 - - 11.4 1029.5 0.0
13/10:30am E 4 6 - - - - 10 - - 10.1 1029.7 0.0
13/10:00am W 3 5 - - - - 10 - - 8.0 1029.7 0.0
13/09:30am WNW 4 5 - - - - 10 - - 5.6 1029.7 0.0
13/09:00am WNW 5 6 - - - - 10 - - 4.1 1029.6 0.0
13/08:30am WNW 6 7 - - - - 10 - - 2.4 1029.2 0.0
13/08:00am W 5 6 - - - - 10 - - 0.9 1028.9 0.0
13/07:38am W 5 6 - - - - 9 - - 0.4 1028.8 0.0
13/07:30am W 5 6 - - - - 6 - - 0.2 1028.7 0.0
13/07:23am WNW 5 5 - - - - 5 - - 0.5 1028.7 0.0
13/07:00am WNW 5 5 - - - - 10 - - 1.4 1028.5 0.0
13/06:40am W 5 6 - - - - 10 - - 0.8 1028.3 0.0
13/06:30am W 5 6 - - - - 5 - - 0.7 1028.2 0.0
13/06:24am WNW 6 6 - - - - 5 - - 1.3 1028.1 0.0
13/06:23am WNW 6 6 - - - - 6 - - 1.3 1028.1 0.0
13/06:00am WNW 5 6 - - - - 4 - - 1.6 1027.8 0.0
13/05:52am WNW 5 6 - - - - 5 - - 1.4 1027.7 0.0
13/05:38am WNW 6 6 - - - - 9 - - 2.0 1027.5 0.0
13/05:30am WNW 5 6 - - - - 6 - - 1.9 1027.4 0.0
13/05:11am WSW 4 5 - - - - 5 - - 2.0 1027.4 0.0
13/05:00am WSW 4 5 - - - - 10 - - 2.4 1027.3 0.0
13/04:42am SW 4 5 - - - - 8 - - 1.2 1027.2 0.0
13/04:30am W 4 5 - - - - 3 - - 1.9 1027.1 0.0
13/04:00am W 5 7 - - - - 2 - - 2.2 1027.0 0.0
13/03:48am WNW 4 7 - - - - 5 - - 2.9 1027.0 0.0
13/03:33am W 4 5 - - - - 8 - - 3.3 1027.0 0.0
13/03:30am WSW 4 5 - - - - 8 - - 3.3 1027.0 0.0
13/03:07am SW 5 7 - - - - 5 - - 3.0 1027.0 0.0
13/03:00am SW 5 6 - - - - 8 - - 3.0 1027.0 0.0
13/02:48am SSW 5 6 - - - - 10 - - 3.4 1026.9 0.0
13/02:30am SSW 5 6 - - - - 1 - - 4.1 1026.9 0.0
13/02:00am WSW 3 4 - - - - 4 Partly cloudy - 4.7 1026.9 0.0
13/01:30am WSW 4 5 - - - - 5 Partly cloudy - 4.4 1026.6 0.0
13/01:00am CALM 0 0 - - - - 2 Partly cloudy - 4.4 1026.5 0.0
13/12:30am CALM 0 0 - - - - 4 Partly cloudy - 6.2 1026.4 0.0
13/12:12am SW 4 6 - - - - 5 Cloudy - 6.1 1026.4 0.0
13/12:00am WSW 4 4 - - - - 10 Mostly cloudy - 6.3 1026.3 0.0
 
Date/Time
EST
Wind Sea
Height
m
Swell Vis
km
Cloud Weather Temp
°C
Press
hPa
Rain since
9am
mm
Dir  Spd
kts
Gust
kts
Height
m
Period
s
Dir
12/11:30pm SW 1 5 - - - - 10 Cloudy - 5.9 1026.2 0.0
12/11:00pm CALM 0 0 - - - - 10 Partly cloudy - 6.8 1026.0 0.0
12/10:30pm SE 5 5 - - - - 10 Cloudy - 7.1 1025.7 0.0
12/10:00pm SSW 2 6 - - - - 10 Partly cloudy - 7.8 1025.6 0.0
12/09:30pm CALM 0 0 - - - - 10 Partly cloudy - 8.0 1025.5 0.0
12/09:00pm WSW 3 4 - - - - 10 Mostly cloudy - 7.9 1025.3 0.0
12/08:30pm WNW 6 7 - - - - 10 Partly cloudy - 8.0 1024.9 0.0
12/08:00pm WNW 4 5 - - - - 10 Cloudy - 7.9 1024.6 0.0
12/07:30pm WNW 4 5 - - - - 8 Partly cloudy - 6.8 1024.3 0.0
12/07:00pm WNW 4 5 - - - - 10 Partly cloudy - 7.4 1024.1 0.0
12/06:30pm WNW 4 5 - - - - 10 Cloudy - 8.2 1023.6 0.0
12/06:00pm SSW 6 7 - - - - 10 Cloudy - 8.7 1023.2 0.0
12/05:30pm CALM 0 0 - - - - 10 Partly cloudy - 8.0 1022.8 0.0
12/05:00pm CALM 0 0 - - - - 10 - - 10.2 1022.4 0.0
12/04:30pm CALM 0 0 - - - - 10 - - 12.4 1022.2 0.0
12/04:00pm E 4 5 - - - - 10 - - 12.8 1022.0 0.0
12/03:30pm E 5 7 - - - - 10 - - 13.2 1021.7 0.0
12/03:00pm ENE 5 6 - - - - 10 Mostly clear - 13.4 1021.4 0.0
12/02:30pm NE 5 7 - - - - 10 Partly cloudy - 13.7 1021.2 0.0
12/02:00pm NNE 4 5 - - - - 10 - - 13.9 1021.1 0.0
12/01:30pm E 2 4 - - - - 10 - - 13.7 1021.0 0.0
12/01:00pm E 1 3 - - - - 10 Partly cloudy - 12.5 1021.0 0.0
12/12:30pm E 3 5 - - - - 10 Cloudy - 11.9 1021.2 0.0
12/12:00pm CALM 0 0 - - - - 10 Cloudy - 11.3 1021.4 0.0
12/11:30am NW 3 3 - - - - 10 Cloudy - 10.8 1021.6 0.0
12/11:00am NW 4 5 - - - - 10 Cloudy - 9.9 1021.7 0.0
12/10:30am W 5 6 - - - - 10 Partly cloudy - 8.6 1021.6 0.0
12/10:00am WNW 5 6 - - - - 10 Partly cloudy - 6.9 1021.3 0.0

Other formats

Comma delimited format used in spreadsheet applications
http://www.bom.gov.au/fwo/IDV60701/IDV60701.95957.axf

JavaScript Object Notation format (JSON) in row-major order
http://www.bom.gov.au/fwo/IDV60701/IDV60701.95957.json

Data quality

Most of these data are generated automatically and are frequently updated. Quality checks on data are not normally performed. It is possible for incorrect values to appear. Refer to information at About Latest Weather Observations and please check the disclaimer before using these data.